sensor_id;sensor_type;location;lat;lon;timestamp;pressure;altitude;pressure_sealevel;temperature;humidity
11041;BME280;5573;49.592;8.662;2023-01-31T00:01:20;100809.91;;;4.20;100.00
11041;BME280;5573;49.592;8.662;2023-01-31T00:03:51;100815.63;;;4.10;100.00
11041;BME280;5573;49.592;8.662;2023-01-31T00:06:22;100809.41;;;4.18;100.00
11041;BME280;5573;49.592;8.662;2023-01-31T00:08:50;100803.78;;;4.14;100.00
11041;BME280;5573;49.592;8.662;2023-01-31T00:11:20;100801.31;;;4.04;100.00
11041;BME280;5573;49.592;8.662;2023-01-31T00:13:49;100798.25;;;4.28;100.00
11041;BME280;5573;49.592;8.662;2023-01-31T00:16:19;100792.72;;;4.19;100.00
11041;BME280;5573;49.592;8.662;2023-01-31T00:18:47;100796.28;;;4.20;100.00
11041;BME280;5573;49.592;8.662;2023-01-31T00:21:17;100798.91;;;4.02;100.00
11041;BME280;5573;49.592;8.662;2023-01-31T00:23:45;100800.41;;;4.17;100.00
11041;BME280;5573;49.592;8.662;2023-01-31T00:26:15;100802.53;;;4.20;100.00
11041;BME280;5573;49.592;8.662;2023-01-31T00:28:45;100796.88;;;4.17;100.00
11041;BME280;5573;49.592;8.662;2023-01-31T00:31:14;100802.34;;;4.17;100.00
11041;BME280;5573;49.592;8.662;2023-01-31T00:33:45;100799.28;;;4.10;100.00
11041;BME280;5573;49.592;8.662;2023-01-31T00:36:15;100801.69;;;4.11;100.00
11041;BME280;5573;49.592;8.662;2023-01-31T00:38:44;100786.59;;;4.05;100.00
11041;BME280;5573;49.592;8.662;2023-01-31T00:41:17;100809.91;;;4.20;100.00
11041;BME280;5573;49.592;8.662;2023-01-31T00:43:44;100802.81;;;4.19;100.00
11041;BME280;5573;49.592;8.662;2023-01-31T00:46:12;100807.66;;;4.22;100.00
11041;BME280;5573;49.592;8.662;2023-01-31T00:48:40;100790.34;;;4.18;100.00
11041;BME280;5573;49.592;8.662;2023-01-31T00:51:09;100784.25;;;4.21;100.00
11041;BME280;5573;49.592;8.662;2023-01-31T00:53:37;100792.13;;;4.22;100.00
11041;BME280;5573;49.592;8.662;2023-01-31T00:56:07;100794.56;;;3.93;100.00
11041;BME280;5573;49.592;8.662;2023-01-31T00:58:35;100793.94;;;4.04;100.00
11041;BME280;5573;49.592;8.662;2023-01-31T01:01:06;100791.31;;;4.22;100.00
11041;BME280;5573;49.592;8.662;2023-01-31T01:03:35;100795.59;;;4.14;100.00
11041;BME280;5573;49.592;8.662;2023-01-31T01:06:04;100793.59;;;3.97;100.00
11041;BME280;5573;49.592;8.662;2023-01-31T01:08:35;100795.19;;;3.98;100.00
11041;BME280;5573;49.592;8.662;2023-01-31T01:11:05;100799.28;;;4.10;100.00
11041;BME280;5573;49.592;8.662;2023-01-31T01:13:33;100790.41;;;3.95;100.00
11041;BME280;5573;49.592;8.662;2023-01-31T01:16:04;100805.44;;;3.93;100.00
11041;BME280;5573;49.592;8.662;2023-01-31T01:18:32;100808.38;;;4.05;100.00
11041;BME280;5573;49.592;8.662;2023-01-31T01:21:07;100816.06;;;4.03;100.00
11041;BME280;5573;49.592;8.662;2023-01-31T01:23:37;100806.44;;;3.97;100.00
11041;BME280;5573;49.592;8.662;2023-01-31T01:26:12;100813.75;;;3.96;100.00
11041;BME280;5573;49.592;8.662;2023-01-31T01:28:40;100814.31;;;4.07;100.00
11041;BME280;5573;49.592;8.662;2023-01-31T01:31:10;100811.03;;;3.96;100.00
11041;BME280;5573;49.592;8.662;2023-01-31T01:33:39;100806.47;;;4.05;100.00
11041;BME280;5573;49.592;8.662;2023-01-31T01:36:08;100809.94;;;3.97;100.00
11041;BME280;5573;49.592;8.662;2023-01-31T01:38:40;100818.28;;;4.01;100.00
11041;BME280;5573;49.592;8.662;2023-01-31T01:41:09;100808.50;;;4.00;100.00
11041;BME280;5573;49.592;8.662;2023-01-31T01:43:42;100817.91;;;3.94;100.00
11041;BME280;5573;49.592;8.662;2023-01-31T01:46:12;100816.50;;;3.96;100.00
11041;BME280;5573;49.592;8.662;2023-01-31T01:48:44;100821.28;;;3.91;100.00
11041;BME280;5573;49.592;8.662;2023-01-31T01:51:15;100812.19;;;3.73;100.00
11041;BME280;5573;49.592;8.662;2023-01-31T01:53:49;100824.59;;;3.87;100.00
11041;BME280;5573;49.592;8.662;2023-01-31T01:56:22;100823.31;;;3.85;100.00
11041;BME280;5573;49.592;8.662;2023-01-31T01:58:56;100804.84;;;3.73;100.00
11041;BME280;5573;49.592;8.662;2023-01-31T02:01:28;100822.53;;;3.84;100.00
11041;BME280;5573;49.592;8.662;2023-01-31T02:03:58;100835.25;;;3.98;100.00
11041;BME280;5573;49.592;8.662;2023-01-31T02:06:29;100832.72;;;4.01;100.00
11041;BME280;5573;49.592;8.662;2023-01-31T02:08:59;100830.78;;;4.02;100.00
11041;BME280;5573;49.592;8.662;2023-01-31T02:11:29;100804.91;;;3.82;100.00
11041;BME280;5573;49.592;8.662;2023-01-31T02:14:00;100828.69;;;3.99;100.00
11041;BME280;5573;49.592;8.662;2023-01-31T02:16:30;100828.75;;;3.85;100.00
11041;BME280;5573;49.592;8.662;2023-01-31T02:18:58;100824.59;;;3.87;100.00
11041;BME280;5573;49.592;8.662;2023-01-31T02:21:45;100828.94;;;3.89;100.00
11041;BME280;5573;49.592;8.662;2023-01-31T02:24:42;100834.00;;;3.81;100.00
11041;BME280;5573;49.592;8.662;2023-01-31T02:27:33;100828.06;;;3.79;100.00
11041;BME280;5573;49.592;8.662;2023-01-31T02:30:42;100832.41;;;3.80;100.00
11041;BME280;5573;49.592;8.662;2023-01-31T02:33:20;100832.97;;;3.69;100.00
11041;BME280;5573;49.592;8.662;2023-01-31T02:35:59;100833.91;;;3.64;100.00
11041;BME280;5573;49.592;8.662;2023-01-31T02:38:41;100840.09;;;3.78;100.00
11041;BME280;5573;49.592;8.662;2023-01-31T02:41:17;100826.19;;;3.80;100.00
11041;BME280;5573;49.592;8.662;2023-01-31T02:43:52;100831.00;;;3.83;100.00
11041;BME280;5573;49.592;8.662;2023-01-31T02:46:48;100828.72;;;3.76;100.00
11041;BME280;5573;49.592;8.662;2023-01-31T02:49:22;100823.47;;;3.57;100.00
11041;BME280;5573;49.592;8.662;2023-01-31T02:52:16;100834.78;;;3.51;100.00
11041;BME280;5573;49.592;8.662;2023-01-31T02:54:59;100824.69;;;3.74;100.00
11041;BME280;5573;49.592;8.662;2023-01-31T02:57:51;100791.56;;;3.49;100.00
11041;BME280;5573;49.592;8.662;2023-01-31T03:00:21;100815.34;;;3.66;100.00
11041;BME280;5573;49.592;8.662;2023-01-31T03:02:50;100805.84;;;3.55;100.00
11041;BME280;5573;49.592;8.662;2023-01-31T03:05:19;100813.53;;;3.53;100.00
11041;BME280;5573;49.592;8.662;2023-01-31T03:07:51;100807.38;;;3.47;100.00
11041;BME280;5573;49.592;8.662;2023-01-31T03:10:35;100811.72;;;3.48;100.00
11041;BME280;5573;49.592;8.662;2023-01-31T03:13:17;100805.84;;;3.32;100.00
11041;BME280;5573;49.592;8.662;2023-01-31T03:15:59;100816.44;;;3.20;100.00
11041;BME280;5573;49.592;8.662;2023-01-31T03:18:53;100813.72;;;2.83;100.00
11041;BME280;5573;49.592;8.662;2023-01-31T03:21:30;100815.94;;;2.68;100.00
11041;BME280;5573;49.592;8.662;2023-01-31T03:23:59;100820.72;;;2.62;100.00
11041;BME280;5573;49.592;8.662;2023-01-31T03:26:27;100830.66;;;2.53;100.00
11041;BME280;5573;49.592;8.662;2023-01-31T03:28:56;100827.97;;;2.39;100.00
11041;BME280;5573;49.592;8.662;2023-01-31T03:31:29;100836.00;;;2.30;100.00
11041;BME280;5573;49.592;8.662;2023-01-31T03:34:03;100831.56;;;2.20;100.00
11041;BME280;5573;49.592;8.662;2023-01-31T03:36:38;100837.50;;;2.22;100.00
11041;BME280;5573;49.592;8.662;2023-01-31T03:39:30;100811.34;;;1.99;100.00
11041;BME280;5573;49.592;8.662;2023-01-31T03:42:07;100840.47;;;1.93;100.00
11041;BME280;5573;49.592;8.662;2023-01-31T03:44:44;100839.44;;;1.89;100.00
11041;BME280;5573;49.592;8.662;2023-01-31T03:47:20;100801.03;;;1.49;100.00
11041;BME280;5573;49.592;8.662;2023-01-31T03:49:51;100852.31;;;1.83;100.00
11041;BME280;5573;49.592;8.662;2023-01-31T03:52:26;100852.34;;;1.65;100.00
11041;BME280;5573;49.592;8.662;2023-01-31T03:54:58;100858.41;;;1.75;100.00
11041;BME280;5573;49.592;8.662;2023-01-31T03:57:32;100861.50;;;1.69;100.00
11041;BME280;5573;49.592;8.662;2023-01-31T04:00:04;100853.03;;;1.37;100.00
11041;BME280;5573;49.592;8.662;2023-01-31T04:02:40;100849.66;;;1.46;100.00
11041;BME280;5573;49.592;8.662;2023-01-31T04:05:13;100848.56;;;1.28;100.00
11041;BME280;5573;49.592;8.662;2023-01-31T04:07:47;100853.03;;;1.18;100.00
11041;BME280;5573;49.592;8.662;2023-01-31T04:10:21;100856.13;;;1.12;100.00
11041;BME280;5573;49.592;8.662;2023-01-31T04:12:49;100862.38;;;1.07;100.00
11041;BME280;5573;49.592;8.662;2023-01-31T04:15:17;100866.50;;;1.05;100.00
11041;BME280;5573;49.592;8.662;2023-01-31T04:17:45;100867.38;;;1.00;100.00
11041;BME280;5573;49.592;8.662;2023-01-31T04:20:13;100861.34;;;0.84;100.00
11041;BME280;5573;49.592;8.662;2023-01-31T04:22:41;100867.28;;;0.86;100.00
11041;BME280;5573;49.592;8.662;2023-01-31T04:25:10;100862.81;;;0.76;100.00
11041;BME280;5573;49.592;8.662;2023-01-31T04:27:38;100864.75;;;0.71;100.00
11041;BME280;5573;49.592;8.662;2023-01-31T04:30:07;100863.44;;;0.68;100.00
11041;BME280;5573;49.592;8.662;2023-01-31T04:32:35;100861.25;;;0.70;100.00
11041;BME280;5573;49.592;8.662;2023-01-31T04:35:03;100865.03;;;0.69;100.00
11041;BME280;5573;49.592;8.662;2023-01-31T04:37:31;100863.91;;;0.51;100.00
11041;BME280;5573;49.592;8.662;2023-01-31T04:39:59;100847.19;;;0.44;100.00
11041;BME280;5573;49.592;8.662;2023-01-31T04:42:28;100833.44;;;0.40;100.00
11041;BME280;5573;49.592;8.662;2023-01-31T04:44:56;100843.34;;;0.26;100.00
11041;BME280;5573;49.592;8.662;2023-01-31T04:47:24;100847.31;;;0.34;100.00
11041;BME280;5573;49.592;8.662;2023-01-31T04:49:51;100848.78;;;0.21;100.00
11041;BME280;5573;49.592;8.662;2023-01-31T04:52:19;100844.19;;;0.22;100.00
11041;BME280;5573;49.592;8.662;2023-01-31T04:54:47;100841.25;;;0.18;100.00
11041;BME280;5573;49.592;8.662;2023-01-31T04:57:14;100844.25;;;0.16;100.00
11041;BME280;5573;49.592;8.662;2023-01-31T04:59:43;100843.53;;;0.06;100.00
11041;BME280;5573;49.592;8.662;2023-01-31T05:02:11;100838.31;;;0.14;100.00
11041;BME280;5573;49.592;8.662;2023-01-31T05:04:40;100840.78;;;0.11;100.00
11041;BME280;5573;49.592;8.662;2023-01-31T05:07:08;100827.03;;;0.07;100.00
11041;BME280;5573;49.592;8.662;2023-01-31T05:09:35;100828.09;;;0.06;100.00
11041;BME280;5573;49.592;8.662;2023-01-31T05:12:04;100837.88;;;0.02;100.00
11041;BME280;5573;49.592;8.662;2023-01-31T05:14:33;100835.38;;;0.11;100.00
11041;BME280;5573;49.592;8.662;2023-01-31T05:17:02;100843.28;;;0.02;100.00
11041;BME280;5573;49.592;8.662;2023-01-31T05:19:30;100834.97;;;-0.02;100.00
11041;BME280;5573;49.592;8.662;2023-01-31T05:21:58;100839.59;;;-0.07;100.00
11041;BME280;5573;49.592;8.662;2023-01-31T05:24:27;100832.81;;;-0.05;100.00
11041;BME280;5573;49.592;8.662;2023-01-31T05:26:57;100827.97;;;-0.08;100.00
11041;BME280;5573;49.592;8.662;2023-01-31T05:29:28;100838.47;;;-0.01;100.00
11041;BME280;5573;49.592;8.662;2023-01-31T05:31:57;100834.00;;;0.13;100.00
11041;BME280;5573;49.592;8.662;2023-01-31T05:34:27;100831.13;;;0.05;100.00
11041;BME280;5573;49.592;8.662;2023-01-31T05:36:58;100830.78;;;0.11;100.00
11041;BME280;5573;49.592;8.662;2023-01-31T05:39:26;100807.50;;;0.10;100.00
11041;BME280;5573;49.592;8.662;2023-01-31T05:41:54;100833.94;;;0.18;100.00
11041;BME280;5573;49.592;8.662;2023-01-31T05:44:21;100842.47;;;0.31;100.00
11041;BME280;5573;49.592;8.662;2023-01-31T05:46:49;100828.31;;;0.39;100.00
11041;BME280;5573;49.592;8.662;2023-01-31T05:49:17;100829.78;;;0.50;100.00
11041;BME280;5573;49.592;8.662;2023-01-31T05:51:46;100831.53;;;0.41;100.00
11041;BME280;5573;49.592;8.662;2023-01-31T05:54:14;100818.25;;;0.45;100.00
11041;BME280;5573;49.592;8.662;2023-01-31T05:56:41;100828.31;;;0.39;100.00
11041;BME280;5573;49.592;8.662;2023-01-31T05:59:09;100833.69;;;0.63;100.00
11041;BME280;5573;49.592;8.662;2023-01-31T06:01:37;100836.41;;;0.63;100.00
11041;BME280;5573;49.592;8.662;2023-01-31T06:04:05;100823.34;;;0.70;100.00
11041;BME280;5573;49.592;8.662;2023-01-31T06:06:32;100831.03;;;0.82;100.00
11041;BME280;5573;49.592;8.662;2023-01-31T06:09:01;100833.28;;;0.75;100.00
11041;BME280;5573;49.592;8.662;2023-01-31T06:11:29;100832.56;;;0.88;100.00
11041;BME280;5573;49.592;8.662;2023-01-31T06:13:57;100846.72;;;1.04;100.00
11041;BME280;5573;49.592;8.662;2023-01-31T06:16:25;100843.38;;;1.31;100.00
11041;BME280;5573;49.592;8.662;2023-01-31T06:18:52;100844.06;;;1.56;100.00
11041;BME280;5573;49.592;8.662;2023-01-31T06:21:22;100848.66;;;1.74;100.00
11041;BME280;5573;49.592;8.662;2023-01-31T06:23:50;100857.03;;;1.92;100.00
11041;BME280;5573;49.592;8.662;2023-01-31T06:26:19;100855.97;;;2.07;100.00
11041;BME280;5573;49.592;8.662;2023-01-31T06:28:47;100861.25;;;1.98;100.00
11041;BME280;5573;49.592;8.662;2023-01-31T06:31:15;100852.44;;;2.06;100.00
11041;BME280;5573;49.592;8.662;2023-01-31T06:33:43;100853.75;;;2.09;100.00
11041;BME280;5573;49.592;8.662;2023-01-31T06:36:14;100856.84;;;2.02;100.00
11041;BME280;5573;49.592;8.662;2023-01-31T06:38:48;100844.47;;;1.96;100.00
11041;BME280;5573;49.592;8.662;2023-01-31T06:41:15;100846.31;;;2.14;100.00
11041;BME280;5573;49.592;8.662;2023-01-31T06:43:45;100854.19;;;2.16;100.00
11041;BME280;5573;49.592;8.662;2023-01-31T06:46:12;100848.53;;;2.12;100.00
11041;BME280;5573;49.592;8.662;2023-01-31T06:48:40;100852.38;;;2.11;100.00
11041;BME280;5573;49.592;8.662;2023-01-31T06:51:09;100853.78;;;2.22;100.00
11041;BME280;5573;49.592;8.662;2023-01-31T06:53:36;100839.09;;;2.10;100.00
11041;BME280;5573;49.592;8.662;2023-01-31T06:56:05;100845.94;;;2.07;100.00
11041;BME280;5573;49.592;8.662;2023-01-31T06:58:33;100855.69;;;2.22;100.00
11041;BME280;5573;49.592;8.662;2023-01-31T07:01:05;100857.09;;;2.19;100.00
11041;BME280;5573;49.592;8.662;2023-01-31T07:03:33;100852.59;;;2.29;100.00
11041;BME280;5573;49.592;8.662;2023-01-31T07:06:01;100831.91;;;2.00;100.00
11041;BME280;5573;49.592;8.662;2023-01-31T07:08:29;100860.81;;;2.10;100.00
11041;BME280;5573;49.592;8.662;2023-01-31T07:11:02;100849.72;;;2.06;100.00
11041;BME280;5573;49.592;8.662;2023-01-31T07:13:30;100864.59;;;2.09;100.00
11041;BME280;5573;49.592;8.662;2023-01-31T07:15:58;100873.75;;;2.13;100.00
11041;BME280;5573;49.592;8.662;2023-01-31T07:18:27;100882.22;;;2.11;100.00
11041;BME280;5573;49.592;8.662;2023-01-31T07:20:55;100890.81;;;2.32;100.00
11041;BME280;5573;49.592;8.662;2023-01-31T07:23:23;100890.78;;;2.18;100.00
11041;BME280;5573;49.592;8.662;2023-01-31T07:25:50;100890.56;;;2.15;100.00
11041;BME280;5573;49.592;8.662;2023-01-31T07:28:18;100875.97;;;2.11;100.00
11041;BME280;5573;49.592;8.662;2023-01-31T07:30:46;100895.00;;;2.24;100.00
11041;BME280;5573;49.592;8.662;2023-01-31T07:33:14;100898.22;;;2.27;100.00
11041;BME280;5573;49.592;8.662;2023-01-31T07:35:43;100902.66;;;2.22;100.00
11041;BME280;5573;49.592;8.662;2023-01-31T07:38:11;100898.75;;;2.29;100.00
11041;BME280;5573;49.592;8.662;2023-01-31T07:40:38;100901.75;;;2.27;100.00
11041;BME280;5573;49.592;8.662;2023-01-31T07:43:06;100902.44;;;2.19;100.00
11041;BME280;5573;49.592;8.662;2023-01-31T07:45:34;100906.09;;;2.28;100.00
11041;BME280;5573;49.592;8.662;2023-01-31T07:48:02;100900.91;;;2.13;100.00
11041;BME280;5573;49.592;8.662;2023-01-31T07:50:31;100903.50;;;2.37;100.00
11041;BME280;5573;49.592;8.662;2023-01-31T07:53:01;100907.28;;;2.22;100.00
11041;BME280;5573;49.592;8.662;2023-01-31T07:55:28;100903.94;;;2.11;100.00
11041;BME280;5573;49.592;8.662;2023-01-31T07:57:56;100907.56;;;2.20;100.00
11041;BME280;5573;49.592;8.662;2023-01-31T08:00:24;100906.47;;;2.21;100.00
11041;BME280;5573;49.592;8.662;2023-01-31T08:03:22;100909.50;;;2.34;100.00
11041;BME280;5573;49.592;8.662;2023-01-31T08:06:01;100918.81;;;2.14;100.00
11041;BME280;5573;49.592;8.662;2023-01-31T08:08:30;100925.00;;;2.33;100.00
11041;BME280;5573;49.592;8.662;2023-01-31T08:10:58;100920.34;;;2.34;100.00
11041;BME280;5573;49.592;8.662;2023-01-31T08:13:26;100919.06;;;2.31;100.00
11041;BME280;5573;49.592;8.662;2023-01-31T08:15:54;100913.34;;;2.47;100.00
11041;BME280;5573;49.592;8.662;2023-01-31T08:18:21;100921.59;;;2.41;100.00
11041;BME280;5573;49.592;8.662;2023-01-31T08:20:49;100923.63;;;2.63;100.00
11041;BME280;5573;49.592;8.662;2023-01-31T08:23:17;100927.44;;;2.62;100.00
11041;BME280;5573;49.592;8.662;2023-01-31T08:25:46;100926.47;;;2.72;100.00
11041;BME280;5573;49.592;8.662;2023-01-31T08:28:14;100913.06;;;2.76;100.00
11041;BME280;5573;49.592;8.662;2023-01-31T08:30:43;100913.69;;;2.73;100.00
11041;BME280;5573;49.592;8.662;2023-01-31T08:33:21;100911.53;;;2.70;100.00
11041;BME280;5573;49.592;8.662;2023-01-31T08:35:50;100916.19;;;2.55;100.00
11041;BME280;5573;49.592;8.662;2023-01-31T08:38:17;100913.88;;;2.62;100.00
11041;BME280;5573;49.592;8.662;2023-01-31T08:40:47;100916.59;;;2.76;100.00
11041;BME280;5573;49.592;8.662;2023-01-31T08:43:15;100918.50;;;2.76;100.00
11041;BME280;5573;49.592;8.662;2023-01-31T08:45:43;100921.81;;;2.73;100.00
11041;BME280;5573;49.592;8.662;2023-01-31T08:48:11;100918.31;;;2.72;100.00
11041;BME280;5573;49.592;8.662;2023-01-31T08:50:40;100929.28;;;2.81;100.00
11041;BME280;5573;49.592;8.662;2023-01-31T08:53:08;100923.03;;;2.80;100.00
11041;BME280;5573;49.592;8.662;2023-01-31T08:55:36;100906.25;;;2.78;100.00
11041;BME280;5573;49.592;8.662;2023-01-31T08:58:05;100913.97;;;2.85;100.00
11041;BME280;5573;49.592;8.662;2023-01-31T09:00:33;100909.84;;;2.74;100.00
11041;BME280;5573;49.592;8.662;2023-01-31T09:03:01;100899.59;;;2.71;100.00
11041;BME280;5573;49.592;8.662;2023-01-31T09:05:30;100891.25;;;2.81;100.00
11041;BME280;5573;49.592;8.662;2023-01-31T09:07:59;100902.38;;;2.65;100.00
11041;BME280;5573;49.592;8.662;2023-01-31T09:10:26;100898.88;;;2.65;100.00
11041;BME280;5573;49.592;8.662;2023-01-31T09:12:54;100901.69;;;2.74;100.00
11041;BME280;5573;49.592;8.662;2023-01-31T09:15:23;100912.34;;;2.84;100.00
11041;BME280;5573;49.592;8.662;2023-01-31T09:17:52;100912.28;;;2.89;100.00
11041;BME280;5573;49.592;8.662;2023-01-31T09:20:20;100910.75;;;2.83;100.00
11041;BME280;5573;49.592;8.662;2023-01-31T09:22:47;100914.59;;;2.96;100.00
11041;BME280;5573;49.592;8.662;2023-01-31T09:25:15;100913.25;;;3.07;100.00
11041;BME280;5573;49.592;8.662;2023-01-31T09:27:43;100900.06;;;3.14;100.00
11041;BME280;5573;49.592;8.662;2023-01-31T09:30:11;100897.22;;;3.19;100.00
11041;BME280;5573;49.592;8.662;2023-01-31T09:32:41;100890.50;;;3.17;100.00
11041;BME280;5573;49.592;8.662;2023-01-31T09:35:09;100883.06;;;3.09;100.00
11041;BME280;5573;49.592;8.662;2023-01-31T09:37:39;100873.91;;;3.04;100.00
11041;BME280;5573;49.592;8.662;2023-01-31T09:40:15;100884.22;;;3.30;100.00
11041;BME280;5573;49.592;8.662;2023-01-31T09:42:49;100892.63;;;3.42;100.00
11041;BME280;5573;49.592;8.662;2023-01-31T09:45:26;100881.97;;;3.46;100.00
11041;BME280;5573;49.592;8.662;2023-01-31T09:47:58;100867.03;;;3.21;100.00
11041;BME280;5573;49.592;8.662;2023-01-31T09:50:30;100880.84;;;3.47;100.00
11041;BME280;5573;49.592;8.662;2023-01-31T09:53:00;100884.25;;;3.53;100.00
11041;BME280;5573;49.592;8.662;2023-01-31T09:55:34;100891.16;;;3.36;100.00
11041;BME280;5573;49.592;8.662;2023-01-31T09:58:10;100895.94;;;3.53;100.00
11041;BME280;5573;49.592;8.662;2023-01-31T10:00:46;100900.81;;;3.42;100.00
11041;BME280;5573;49.592;8.662;2023-01-31T10:03:31;100908.59;;;3.35;100.00
11041;BME280;5573;49.592;8.662;2023-01-31T10:06:09;100900.59;;;3.39;100.00
11041;BME280;5573;49.592;8.662;2023-01-31T10:08:46;100902.81;;;3.37;100.00
11041;BME280;5573;49.592;8.662;2023-01-31T10:11:26;100898.69;;;3.39;100.00
11041;BME280;5573;49.592;8.662;2023-01-31T10:13:57;100899.94;;;3.33;100.00
11041;BME280;5573;49.592;8.662;2023-01-31T10:16:30;100896.44;;;3.55;100.00
11041;BME280;5573;49.592;8.662;2023-01-31T10:19:04;100899.44;;;3.54;100.00
11041;BME280;5573;49.592;8.662;2023-01-31T10:21:35;100882.81;;;3.55;100.00
11041;BME280;5573;49.592;8.662;2023-01-31T10:24:11;100882.78;;;3.69;100.00
11041;BME280;5573;49.592;8.662;2023-01-31T10:26:42;100870.56;;;3.66;100.00
11041;BME280;5573;49.592;8.662;2023-01-31T10:29:15;100848.69;;;3.72;100.00
11041;BME280;5573;49.592;8.662;2023-01-31T10:31:48;100861.91;;;3.87;100.00
11041;BME280;5573;49.592;8.662;2023-01-31T10:34:24;100865.78;;;3.86;100.00
11041;BME280;5573;49.592;8.662;2023-01-31T10:36:59;100885.03;;;3.98;100.00
11041;BME280;5573;49.592;8.662;2023-01-31T10:39:31;100886.84;;;4.03;100.00
11041;BME280;5573;49.592;8.662;2023-01-31T10:42:11;100873.78;;;3.91;100.00
11041;BME280;5573;49.592;8.662;2023-01-31T10:44:45;100871.00;;;4.05;100.00
11041;BME280;5573;49.592;8.662;2023-01-31T10:47:17;100863.88;;;4.18;100.00
11041;BME280;5573;49.592;8.662;2023-01-31T10:49:48;100853.72;;;4.10;100.00
11041;BME280;5573;49.592;8.662;2023-01-31T10:52:25;100861.75;;;4.15;100.00
11041;BME280;5573;49.592;8.662;2023-01-31T10:55:09;100867.78;;;4.34;100.00
11041;BME280;5573;49.592;8.662;2023-01-31T10:57:44;100875.00;;;4.30;100.00
11041;BME280;5573;49.592;8.662;2023-01-31T11:00:18;100869.69;;;4.34;100.00
11041;BME280;5573;49.592;8.662;2023-01-31T11:02:47;100841.09;;;4.14;100.00
11041;BME280;5573;49.592;8.662;2023-01-31T11:05:19;100869.25;;;4.40;100.00
11041;BME280;5573;49.592;8.662;2023-01-31T11:07:48;100873.19;;;4.25;100.00
11041;BME280;5573;49.592;8.662;2023-01-31T11:10:21;100868.63;;;4.12;100.00
11041;BME280;5573;49.592;8.662;2023-01-31T11:12:54;100853.78;;;4.18;100.00
11041;BME280;5573;49.592;8.662;2023-01-31T11:15:23;100829.97;;;4.33;100.00
11041;BME280;5573;49.592;8.662;2023-01-31T11:17:52;100815.53;;;4.32;100.00
11041;BME280;5573;49.592;8.662;2023-01-31T11:20:24;100814.09;;;4.26;100.00
11041;BME280;5573;49.592;8.662;2023-01-31T11:22:54;100802.56;;;4.29;100.00
11041;BME280;5573;49.592;8.662;2023-01-31T11:25:24;100811.22;;;4.31;100.00
11041;BME280;5573;49.592;8.662;2023-01-31T11:27:53;100786.22;;;4.38;100.00
11041;BME280;5573;49.592;8.662;2023-01-31T11:30:27;100770.94;;;4.19;100.00
11041;BME280;5573;49.592;8.662;2023-01-31T11:32:56;100785.53;;;4.23;100.00
11041;BME280;5573;49.592;8.662;2023-01-31T11:35:27;100786.03;;;4.25;100.00
11041;BME280;5573;49.592;8.662;2023-01-31T11:37:56;100776.09;;;4.21;100.00
11041;BME280;5573;49.592;8.662;2023-01-31T11:40:30;100783.19;;;4.39;100.00
11041;BME280;5573;49.592;8.662;2023-01-31T11:43:00;100776.31;;;4.42;100.00
11041;BME280;5573;49.592;8.662;2023-01-31T11:45:29;100749.25;;;4.45;100.00
11041;BME280;5573;49.592;8.662;2023-01-31T11:47:58;100747.81;;;4.48;100.00
11041;BME280;5573;49.592;8.662;2023-01-31T11:50:36;100732.59;;;4.64;100.00
11041;BME280;5573;49.592;8.662;2023-01-31T11:53:15;100714.81;;;4.50;100.00
11041;BME280;5573;49.592;8.662;2023-01-31T11:55:43;100727.34;;;4.77;100.00
11041;BME280;5573;49.592;8.662;2023-01-31T11:58:16;100728.13;;;4.68;100.00
11041;BME280;5573;49.592;8.662;2023-01-31T12:00:54;100733.22;;;4.70;100.00
11041;BME280;5573;49.592;8.662;2023-01-31T12:03:23;100738.69;;;4.61;100.00
11041;BME280;5573;49.592;8.662;2023-01-31T12:06:00;100727.00;;;4.78;100.00
11041;BME280;5573;49.592;8.662;2023-01-31T12:08:31;100695.88;;;4.53;100.00
11041;BME280;5573;49.592;8.662;2023-01-31T12:11:03;100719.13;;;4.59;100.00
11041;BME280;5573;49.592;8.662;2023-01-31T12:13:31;100723.94;;;4.71;100.00
11041;BME280;5573;49.592;8.662;2023-01-31T12:16:12;100725.72;;;4.67;100.00
11041;BME280;5573;49.592;8.662;2023-01-31T12:18:50;100727.47;;;4.54;100.00
11041;BME280;5573;49.592;8.662;2023-01-31T12:21:33;100721.81;;;4.42;100.00
11041;BME280;5573;49.592;8.662;2023-01-31T12:24:11;100719.44;;;4.49;100.00
11041;BME280;5573;49.592;8.662;2023-01-31T12:26:44;100709.00;;;4.42;100.00
11041;BME280;5573;49.592;8.662;2023-01-31T12:29:40;100703.72;;;4.46;100.00
11041;BME280;5573;49.592;8.662;2023-01-31T12:32:36;100702.41;;;4.26;100.00
11041;BME280;5573;49.592;8.662;2023-01-31T12:35:18;100710.41;;;4.22;100.00
11041;BME280;5573;49.592;8.662;2023-01-31T12:38:00;100711.22;;;4.32;100.00
11041;BME280;5573;49.592;8.662;2023-01-31T12:40:36;100712.19;;;4.27;100.00
11041;BME280;5573;49.592;8.662;2023-01-31T12:43:18;100713.34;;;4.35;100.00
11041;BME280;5573;49.592;8.662;2023-01-31T12:46:01;100724.31;;;4.12;100.00
11041;BME280;5573;49.592;8.662;2023-01-31T12:48:44;100707.72;;;4.31;100.00
11041;BME280;5573;49.592;8.662;2023-01-31T12:51:26;100688.81;;;4.35;100.00
11041;BME280;5573;49.592;8.662;2023-01-31T12:54:07;100684.16;;;4.44;100.00
11041;BME280;5573;49.592;8.662;2023-01-31T12:56:48;100687.34;;;4.28;100.00
11041;BME280;5573;49.592;8.662;2023-01-31T12:59:30;100623.38;;;4.00;100.00
11041;BME280;5573;49.592;8.662;2023-01-31T13:02:14;100678.09;;;4.47;100.00
11041;BME280;5573;49.592;8.662;2023-01-31T13:04:48;100678.41;;;4.37;100.00
11041;BME280;5573;49.592;8.662;2023-01-31T13:07:25;100658.38;;;4.41;100.00
11041;BME280;5573;49.592;8.662;2023-01-31T13:10:01;100664.44;;;4.38;100.00
11041;BME280;5573;49.592;8.662;2023-01-31T13:12:31;100633.69;;;4.38;100.00
11041;BME280;5573;49.592;8.662;2023-01-31T13:15:05;100638.66;;;4.44;100.00
11041;BME280;5573;49.592;8.662;2023-01-31T13:17:37;100641.84;;;4.38;100.00
11041;BME280;5573;49.592;8.662;2023-01-31T13:20:22;100647.66;;;4.45;100.00
11041;BME280;5573;49.592;8.662;2023-01-31T13:22:55;100639.63;;;4.66;100.00
11041;BME280;5573;49.592;8.662;2023-01-31T13:25:33;100632.09;;;4.45;100.00